Terminal Aerodrome Forecast
Issued by NWS Binghamton, NY

Home | Current Version | Previous Version | Text Only | Print | Product List | Glossary On
Versions: 1 2 3 4 5 6 7 8 9 10 11 12 13 14 15 16 17 18 19 20 21
753
FTUS41 KBGM 280525
TAFSYR
TAF
KSYR 280525Z 2806/2906 29007KT P6SM BKN040 BKN100
      TEMPO 2806/2808 -SHRA SCT025
     FM280800 26008KT P6SM SCT025 BKN040
     FM281600 27010KT P6SM SCT050 BKN200
     FM290100 18005KT P6SM SCT050 BKN200=

USA.gov is the U.S. government's official web portal to all federal, state and local government web resources and services.